<?xml version="1.0" encoding="UTF-8" standalone="no" ?>
<gpx xmlns="http://www.topografix.com/GPX/1/1" xmlns:xsi="http://www.w3.org/2001/XMLSchema-instance" xsi:schemaLocation="http://www.topografix.com/GPX/1/1 http://www.topografix.com/GPX/1/1/gpx.xsd" version="1.1" creator="VisuGPX - https://www.visugpx.com">
  <metadata>
    <name>UaCY6IykIX</name>
    <desc><![CDATA[

]]></desc>
  </metadata>
  <trk>
    <name><![CDATA[UaCY6IykIX_1]]></name>
    <extensions>
      <line xmlns="http://www.topografix.com/GPX/gpx_style/0/2">
        <color>00FF00</color>
        <width>4</width>
      </line>
    </extensions>
    <trkseg>
      <trkpt lat="44.52582" lon="2.72829">
        <ele>336.114</ele>
        <time>2016-09-14T10:25:34Z</time>
      </trkpt>
      <trkpt lat="44.52582" lon="2.72829">
        <ele>336.114</ele>
        <time>2016-09-14T10:25:34Z</time>
      </trkpt>
      <trkpt lat="44.52597" lon="2.72801">
        <ele>336.308</ele>
        <time>2016-09-14T10:25:54Z</time>
      </trkpt>
      <trkpt lat="44.52635" lon="2.72836">
        <ele>337.752</ele>
        <time>2016-09-14T10:26:14Z</time>
      </trkpt>
      <trkpt lat="44.52689" lon="2.729">
        <ele>339.499</ele>
        <time>2021-01-02T20:29:40Z</time>
      </trkpt>
      <trkpt lat="44.52729" lon="2.72915">
        <ele>342.968</ele>
        <time>2021-01-02T20:30:00Z</time>
      </trkpt>
      <trkpt lat="44.52772" lon="2.72989">
        <ele>335.977</ele>
        <time>2021-01-02T20:30:20Z</time>
      </trkpt>
      <trkpt lat="44.52829" lon="2.73043">
        <ele>332.933</ele>
        <time>2021-01-02T20:30:40Z</time>
      </trkpt>
      <trkpt lat="44.52839" lon="2.73072">
        <ele>331.434</ele>
        <time>2021-01-02T20:31:00Z</time>
      </trkpt>
      <trkpt lat="44.52937" lon="2.73082">
        <ele>330.067</ele>
        <time>2021-01-02T20:31:20Z</time>
      </trkpt>
      <trkpt lat="44.53031" lon="2.72966">
        <ele>337.676</ele>
        <time>2021-01-02T20:31:40Z</time>
      </trkpt>
      <trkpt lat="44.53036" lon="2.72938">
        <ele>342.965</ele>
        <time>2021-01-02T20:32:00Z</time>
      </trkpt>
      <trkpt lat="44.53069" lon="2.72862">
        <ele>352.468</ele>
        <time>2021-01-02T20:32:20Z</time>
      </trkpt>
      <trkpt lat="44.53116" lon="2.72809">
        <ele>360.614</ele>
        <time>2021-01-02T20:32:40Z</time>
      </trkpt>
      <trkpt lat="44.53112" lon="2.72795">
        <ele>367.708</ele>
        <time>2021-01-02T20:33:00Z</time>
      </trkpt>
      <trkpt lat="44.53067" lon="2.72823">
        <ele>367.312</ele>
        <time>2021-01-02T20:33:20Z</time>
      </trkpt>
      <trkpt lat="44.53019" lon="2.7281">
        <ele>374.649</ele>
        <time>2021-01-02T20:33:40Z</time>
      </trkpt>
      <trkpt lat="44.52987" lon="2.72833">
        <ele>367.558</ele>
        <time>2021-01-02T20:34:00Z</time>
      </trkpt>
      <trkpt lat="44.52965" lon="2.72794">
        <ele>375.457</ele>
        <time>2021-01-02T20:34:20Z</time>
      </trkpt>
      <trkpt lat="44.52914" lon="2.72772">
        <ele>383.023</ele>
        <time>2021-01-02T20:34:40Z</time>
      </trkpt>
      <trkpt lat="44.52847" lon="2.72806">
        <ele>390.994</ele>
        <time>2021-01-02T20:35:00Z</time>
      </trkpt>
      <trkpt lat="44.52786" lon="2.72809">
        <ele>395.267</ele>
        <time>2021-01-02T20:35:20Z</time>
      </trkpt>
      <trkpt lat="44.52771" lon="2.72764">
        <ele>400.676</ele>
        <time>2021-01-02T20:35:40Z</time>
      </trkpt>
      <trkpt lat="44.52779" lon="2.72704">
        <ele>406.335</ele>
        <time>2021-01-02T20:36:00Z</time>
      </trkpt>
      <trkpt lat="44.52789" lon="2.72773">
        <ele>403.886</ele>
        <time>2021-01-02T20:36:20Z</time>
      </trkpt>
      <trkpt lat="44.52795" lon="2.72742">
        <ele>408.314</ele>
        <time>2021-01-02T20:36:40Z</time>
      </trkpt>
      <trkpt lat="44.5281" lon="2.72738">
        <ele>410.808</ele>
        <time>2021-01-02T20:37:00Z</time>
      </trkpt>
      <trkpt lat="44.52857" lon="2.72671">
        <ele>419.189</ele>
        <time>2021-01-02T20:37:20Z</time>
      </trkpt>
      <trkpt lat="44.52874" lon="2.72629">
        <ele>427.426</ele>
        <time>2021-01-02T20:37:40Z</time>
      </trkpt>
      <trkpt lat="44.52829" lon="2.72595">
        <ele>431.955</ele>
        <time>2021-01-02T20:38:00Z</time>
      </trkpt>
      <trkpt lat="44.52822" lon="2.72542">
        <ele>436.094</ele>
        <time>2021-01-02T20:38:20Z</time>
      </trkpt>
      <trkpt lat="44.52851" lon="2.72563">
        <ele>440.04</ele>
        <time>2021-01-02T20:38:40Z</time>
      </trkpt>
      <trkpt lat="44.52869" lon="2.72534">
        <ele>447.091</ele>
        <time>2021-01-02T20:39:00Z</time>
      </trkpt>
      <trkpt lat="44.52935" lon="2.72383">
        <ele>481.634</ele>
        <time>2016-09-14T10:30:14Z</time>
      </trkpt>
      <trkpt lat="44.52949" lon="2.72224">
        <ele>483.813</ele>
        <time>2016-09-14T10:30:34Z</time>
      </trkpt>
      <trkpt lat="44.52915" lon="2.72151">
        <ele>489.093</ele>
        <time>2016-09-14T10:30:54Z</time>
      </trkpt>
      <trkpt lat="44.529" lon="2.72057">
        <ele>483.965</ele>
        <time>2016-09-14T10:31:14Z</time>
      </trkpt>
      <trkpt lat="44.5288" lon="2.72001">
        <ele>484.321</ele>
        <time>2016-09-14T10:31:34Z</time>
      </trkpt>
      <trkpt lat="44.52874" lon="2.71889">
        <ele>491.708</ele>
        <time>2016-09-14T10:31:54Z</time>
      </trkpt>
      <trkpt lat="44.5294" lon="2.71782">
        <ele>485.355</ele>
        <time>2016-09-14T10:32:14Z</time>
      </trkpt>
      <trkpt lat="44.52989" lon="2.71673">
        <ele>482.912</ele>
        <time>2016-09-14T10:32:34Z</time>
      </trkpt>
      <trkpt lat="44.53012" lon="2.71473">
        <ele>483.011</ele>
        <time>2016-09-14T10:32:54Z</time>
      </trkpt>
      <trkpt lat="44.53045" lon="2.71426">
        <ele>486.92</ele>
        <time>2016-09-14T10:33:14Z</time>
      </trkpt>
      <trkpt lat="44.53084" lon="2.71273">
        <ele>483.566</ele>
        <time>2016-09-14T10:33:34Z</time>
      </trkpt>
      <trkpt lat="44.53133" lon="2.71243">
        <ele>477.447</ele>
        <time>2016-09-14T10:33:54Z</time>
      </trkpt>
      <trkpt lat="44.53157" lon="2.71194">
        <ele>475.77</ele>
        <time>2016-09-14T10:34:14Z</time>
      </trkpt>
      <trkpt lat="44.53211" lon="2.71147">
        <ele>478.469</ele>
        <time>2016-09-14T10:34:34Z</time>
      </trkpt>
      <trkpt lat="44.53235" lon="2.71151">
        <ele>479.282</ele>
        <time>2016-09-14T10:34:54Z</time>
      </trkpt>
      <trkpt lat="44.53246" lon="2.71097">
        <ele>482.943</ele>
        <time>2016-09-14T10:35:14Z</time>
      </trkpt>
      <trkpt lat="44.5327" lon="2.71042">
        <ele>486.417</ele>
        <time>2016-09-14T10:35:34Z</time>
      </trkpt>
      <trkpt lat="44.53285" lon="2.70956">
        <ele>486.108</ele>
        <time>2016-09-14T10:35:54Z</time>
      </trkpt>
      <trkpt lat="44.53321" lon="2.70986">
        <ele>486.584</ele>
        <time>2016-09-14T10:36:14Z</time>
      </trkpt>
      <trkpt lat="44.53339" lon="2.71022">
        <ele>487.631</ele>
        <time>2016-09-14T10:36:34Z</time>
      </trkpt>
      <trkpt lat="44.53455" lon="2.71087">
        <ele>485.83</ele>
        <time>2016-09-14T10:36:54Z</time>
      </trkpt>
      <trkpt lat="44.53672" lon="2.71092">
        <ele>482.449</ele>
        <time>2019-03-30T12:55:01Z</time>
      </trkpt>
      <trkpt lat="44.53751" lon="2.71132">
        <ele>486.265</ele>
        <time>2019-03-30T12:55:21Z</time>
      </trkpt>
      <trkpt lat="44.53817" lon="2.71088">
        <ele>487.276</ele>
        <time>2019-03-30T12:55:41Z</time>
      </trkpt>
      <trkpt lat="44.53932" lon="2.70955">
        <ele>479.749</ele>
        <time>2019-03-30T12:56:01Z</time>
      </trkpt>
      <trkpt lat="44.53958" lon="2.70795">
        <ele>464.398</ele>
        <time>2016-09-14T10:38:14Z</time>
      </trkpt>
      <trkpt lat="44.5401" lon="2.70821">
        <ele>457.077</ele>
        <time>2016-09-14T10:38:34Z</time>
      </trkpt>
      <trkpt lat="44.5405" lon="2.70939">
        <ele>445.661</ele>
        <time>2016-09-14T10:38:54Z</time>
      </trkpt>
      <trkpt lat="44.54058" lon="2.70997">
        <ele>441.727</ele>
        <time>2016-09-14T10:39:14Z</time>
      </trkpt>
      <trkpt lat="44.54067" lon="2.70919">
        <ele>438.508</ele>
        <time>2016-09-14T10:39:34Z</time>
      </trkpt>
      <trkpt lat="44.54093" lon="2.70874">
        <ele>430.143</ele>
        <time>2016-09-14T10:39:54Z</time>
      </trkpt>
      <trkpt lat="44.54095" lon="2.70795">
        <ele>421.76</ele>
        <time>2016-09-14T10:40:14Z</time>
      </trkpt>
      <trkpt lat="44.54067" lon="2.70722">
        <ele>418.249</ele>
        <time>2016-09-14T10:40:34Z</time>
      </trkpt>
      <trkpt lat="44.54066" lon="2.70598">
        <ele>397.198</ele>
        <time>2016-09-14T10:40:54Z</time>
      </trkpt>
      <trkpt lat="44.54133" lon="2.70527">
        <ele>381.174</ele>
        <time>2016-09-14T10:41:14Z</time>
      </trkpt>
      <trkpt lat="44.54137" lon="2.70473">
        <ele>377.125</ele>
        <time>2016-09-14T10:41:34Z</time>
      </trkpt>
      <trkpt lat="44.54151" lon="2.70379">
        <ele>373.188</ele>
        <time>2016-09-14T10:41:54Z</time>
      </trkpt>
      <trkpt lat="44.54017" lon="2.7037">
        <ele>367.987</ele>
        <time>2016-09-14T10:42:14Z</time>
      </trkpt>
      <trkpt lat="44.53974" lon="2.70353">
        <ele>365.166</ele>
        <time>2016-09-14T10:42:34Z</time>
      </trkpt>
      <trkpt lat="44.5394" lon="2.7031">
        <ele>362.229</ele>
        <time>2016-09-14T10:42:54Z</time>
      </trkpt>
      <trkpt lat="44.53948" lon="2.70228">
        <ele>358.721</ele>
        <time>2016-09-14T10:43:14Z</time>
      </trkpt>
      <trkpt lat="44.53822" lon="2.70067">
        <ele>363.608</ele>
        <time>2016-09-14T10:43:34Z</time>
      </trkpt>
      <trkpt lat="44.54035" lon="2.6951">
        <ele>351.832</ele>
        <time>2016-09-14T10:43:54Z</time>
      </trkpt>
      <trkpt lat="44.54075" lon="2.69175">
        <ele>346.749</ele>
        <time>2016-09-14T10:44:14Z</time>
      </trkpt>
      <trkpt lat="44.54007" lon="2.69095">
        <ele>343.748</ele>
        <time>2016-09-14T10:44:34Z</time>
      </trkpt>
      <trkpt lat="44.53752" lon="2.68941">
        <ele>348.927</ele>
        <time>2016-09-14T10:44:54Z</time>
      </trkpt>
      <trkpt lat="44.53876" lon="2.68748">
        <ele>346.853</ele>
        <time>2016-09-14T10:45:14Z</time>
      </trkpt>
      <trkpt lat="44.54024" lon="2.68638">
        <ele>343.194</ele>
        <time>2016-09-14T10:45:34Z</time>
      </trkpt>
      <trkpt lat="44.54128" lon="2.68475">
        <ele>340.597</ele>
        <time>2016-09-14T10:45:54Z</time>
      </trkpt>
      <trkpt lat="44.54226" lon="2.68364">
        <ele>337.156</ele>
        <time>2016-09-14T10:46:14Z</time>
      </trkpt>
      <trkpt lat="44.54251" lon="2.68306">
        <ele>334.039</ele>
        <time>2016-09-14T10:46:34Z</time>
      </trkpt>
      <trkpt lat="44.5431" lon="2.68319">
        <ele>336.401</ele>
        <time>2016-09-14T10:46:54Z</time>
      </trkpt>
      <trkpt lat="44.54326" lon="2.68269">
        <ele>335.321</ele>
        <time>2016-09-14T10:47:14Z</time>
      </trkpt>
      <trkpt lat="44.54324" lon="2.68141">
        <ele>323.408</ele>
        <time>2016-09-14T10:47:34Z</time>
      </trkpt>
      <trkpt lat="44.54269" lon="2.68091">
        <ele>324.599</ele>
        <time>2016-09-14T10:47:54Z</time>
      </trkpt>
      <trkpt lat="44.54275" lon="2.68048">
        <ele>330.936</ele>
        <time>2016-09-14T10:48:14Z</time>
      </trkpt>
      <trkpt lat="44.54345" lon="2.68053">
        <ele>332.425</ele>
        <time>2016-09-14T10:48:34Z</time>
      </trkpt>
      <trkpt lat="44.5442" lon="2.68177">
        <ele>324.284</ele>
        <time>2016-09-14T10:48:54Z</time>
      </trkpt>
      <trkpt lat="44.54538" lon="2.6816">
        <ele>340.96</ele>
        <time>2016-09-14T10:49:14Z</time>
      </trkpt>
      <trkpt lat="44.54624" lon="2.68179">
        <ele>345.371</ele>
        <time>2016-09-14T10:49:34Z</time>
      </trkpt>
      <trkpt lat="44.54656" lon="2.6828">
        <ele>332.664</ele>
        <time>2016-09-14T10:49:54Z</time>
      </trkpt>
      <trkpt lat="44.54709" lon="2.68351">
        <ele>347.213</ele>
        <time>2016-09-14T10:50:14Z</time>
      </trkpt>
      <trkpt lat="44.54757" lon="2.6852">
        <ele>346.138</ele>
        <time>2016-09-14T10:50:34Z</time>
      </trkpt>
      <trkpt lat="44.54823" lon="2.68632">
        <ele>355.27</ele>
        <time>2016-09-14T10:50:54Z</time>
      </trkpt>
      <trkpt lat="44.54823" lon="2.68632">
        <ele>355.217</ele>
        <time>2016-09-14T10:51:14Z</time>
      </trkpt>
      <trkpt lat="44.54876" lon="2.68636">
        <ele>357.908</ele>
        <time>2016-09-14T10:51:34Z</time>
      </trkpt>
      <trkpt lat="44.54891" lon="2.68394">
        <ele>358.589</ele>
        <time>2016-09-14T10:51:54Z</time>
      </trkpt>
      <trkpt lat="44.54838" lon="2.68128">
        <ele>351.496</ele>
        <time>2016-09-14T10:52:14Z</time>
      </trkpt>
      <trkpt lat="44.54852" lon="2.68018">
        <ele>338.995</ele>
        <time>2016-09-14T10:52:34Z</time>
      </trkpt>
      <trkpt lat="44.54908" lon="2.67877">
        <ele>333.374</ele>
        <time>2016-09-14T10:52:54Z</time>
      </trkpt>
      <trkpt lat="44.55015" lon="2.67774">
        <ele>328.99</ele>
        <time>2016-09-14T10:53:14Z</time>
      </trkpt>
      <trkpt lat="44.55089" lon="2.6766">
        <ele>332.361</ele>
        <time>2016-09-14T10:53:34Z</time>
      </trkpt>
      <trkpt lat="44.55104" lon="2.67576">
        <ele>334.624</ele>
        <time>2016-09-14T10:53:54Z</time>
      </trkpt>
      <trkpt lat="44.55154" lon="2.67482">
        <ele>339.953</ele>
        <time>2016-09-14T10:54:14Z</time>
      </trkpt>
      <trkpt lat="44.55238" lon="2.67383">
        <ele>323.825</ele>
        <time>2016-09-14T10:54:34Z</time>
      </trkpt>
      <trkpt lat="44.55245" lon="2.67201">
        <ele>316.626</ele>
        <time>2016-09-14T10:54:54Z</time>
      </trkpt>
      <trkpt lat="44.55125" lon="2.67124">
        <ele>317.108</ele>
        <time>2016-09-14T10:55:14Z</time>
      </trkpt>
      <trkpt lat="44.55058" lon="2.67143">
        <ele>324.008</ele>
        <time>2016-09-14T10:55:34Z</time>
      </trkpt>
      <trkpt lat="44.54988" lon="2.67117">
        <ele>325.598</ele>
        <time>2016-09-14T10:55:54Z</time>
      </trkpt>
      <trkpt lat="44.54911" lon="2.67169">
        <ele>335.085</ele>
        <time>2016-09-14T10:56:14Z</time>
      </trkpt>
      <trkpt lat="44.54812" lon="2.67192">
        <ele>334.514</ele>
        <time>2016-09-14T10:56:34Z</time>
      </trkpt>
      <trkpt lat="44.54708" lon="2.67076">
        <ele>341.443</ele>
        <time>2016-09-14T10:56:54Z</time>
      </trkpt>
      <trkpt lat="44.54708" lon="2.66909">
        <ele>337.289</ele>
        <time>2016-09-14T10:57:14Z</time>
      </trkpt>
      <trkpt lat="44.54683" lon="2.66765">
        <ele>330.98</ele>
        <time>2016-09-14T10:57:34Z</time>
      </trkpt>
      <trkpt lat="44.54703" lon="2.66688">
        <ele>328.023</ele>
        <time>2016-09-14T10:57:54Z</time>
      </trkpt>
      <trkpt lat="44.54737" lon="2.66613">
        <ele>330.342</ele>
        <time>2016-09-14T10:58:14Z</time>
      </trkpt>
      <trkpt lat="44.548" lon="2.66589">
        <ele>329.157</ele>
        <time>2016-09-14T10:58:34Z</time>
      </trkpt>
      <trkpt lat="44.54911" lon="2.66617">
        <ele>322.3</ele>
        <time>2016-09-14T10:58:54Z</time>
      </trkpt>
      <trkpt lat="44.54992" lon="2.66581">
        <ele>324.82</ele>
        <time>2016-09-14T10:59:14Z</time>
      </trkpt>
      <trkpt lat="44.55043" lon="2.66531">
        <ele>329.808</ele>
        <time>2016-09-14T10:59:34Z</time>
      </trkpt>
      <trkpt lat="44.55165" lon="2.66497">
        <ele>316.831</ele>
        <time>2016-09-14T10:59:54Z</time>
      </trkpt>
      <trkpt lat="44.55238" lon="2.66418">
        <ele>324.078</ele>
        <time>2016-09-14T11:00:14Z</time>
      </trkpt>
      <trkpt lat="44.55419" lon="2.66261">
        <ele>323.577</ele>
        <time>2016-09-14T11:00:34Z</time>
      </trkpt>
      <trkpt lat="44.55491" lon="2.66239">
        <ele>328.836</ele>
        <time>2016-09-14T11:00:54Z</time>
      </trkpt>
      <trkpt lat="44.55555" lon="2.66177">
        <ele>334.512</ele>
        <time>2016-09-14T11:01:14Z</time>
      </trkpt>
      <trkpt lat="44.55986" lon="2.66018">
        <ele>318.073</ele>
        <time>2016-09-14T11:01:34Z</time>
      </trkpt>
      <trkpt lat="44.56157" lon="2.65922">
        <ele>321.046</ele>
        <time>2016-09-14T11:01:54Z</time>
      </trkpt>
      <trkpt lat="44.56425" lon="2.65881">
        <ele>329.095</ele>
        <time>2016-09-14T11:02:14Z</time>
      </trkpt>
      <trkpt lat="44.56388" lon="2.65802">
        <ele>329.169</ele>
        <time>2016-09-14T11:02:34Z</time>
      </trkpt>
      <trkpt lat="44.56368" lon="2.65658">
        <ele>342.904</ele>
        <time>2016-09-14T11:02:54Z</time>
      </trkpt>
      <trkpt lat="44.56371" lon="2.65591">
        <ele>339.824</ele>
        <time>2016-09-14T11:03:14Z</time>
      </trkpt>
      <trkpt lat="44.56358" lon="2.65516">
        <ele>353.008</ele>
        <time>2016-09-14T11:03:34Z</time>
      </trkpt>
      <trkpt lat="44.5641" lon="2.65465">
        <ele>337.892</ele>
        <time>2016-09-14T11:03:54Z</time>
      </trkpt>
      <trkpt lat="44.56428" lon="2.65368">
        <ele>326.819</ele>
        <time>2016-09-14T11:04:14Z</time>
      </trkpt>
      <trkpt lat="44.56378" lon="2.65312">
        <ele>331.018</ele>
        <time>2016-09-14T11:04:34Z</time>
      </trkpt>
      <trkpt lat="44.5635" lon="2.65293">
        <ele>335.797</ele>
        <time>2016-09-14T11:04:54Z</time>
      </trkpt>
      <trkpt lat="44.56355" lon="2.65117">
        <ele>330.933</ele>
        <time>2016-09-14T11:05:14Z</time>
      </trkpt>
      <trkpt lat="44.5637" lon="2.65057">
        <ele>332.364</ele>
        <time>2016-09-14T11:05:34Z</time>
      </trkpt>
      <trkpt lat="44.56342" lon="2.64939">
        <ele>336.567</ele>
        <time>2016-09-14T11:05:54Z</time>
      </trkpt>
      <trkpt lat="44.564" lon="2.65012">
        <ele>338.576</ele>
        <time>2016-09-14T11:06:14Z</time>
      </trkpt>
      <trkpt lat="44.56387" lon="2.64933">
        <ele>349.764</ele>
        <time>2016-09-14T11:06:34Z</time>
      </trkpt>
      <trkpt lat="44.56413" lon="2.64952">
        <ele>358.406</ele>
        <time>2016-09-14T11:06:54Z</time>
      </trkpt>
      <trkpt lat="44.56402" lon="2.64879">
        <ele>361.216</ele>
        <time>2016-09-14T11:07:14Z</time>
      </trkpt>
      <trkpt lat="44.56391" lon="2.64617">
        <ele>392.008</ele>
        <time>2016-09-14T11:07:34Z</time>
      </trkpt>
      <trkpt lat="44.56362" lon="2.64512">
        <ele>387.812</ele>
        <time>2016-09-14T11:07:54Z</time>
      </trkpt>
      <trkpt lat="44.56407" lon="2.64546">
        <ele>405.289</ele>
        <time>2016-09-14T11:08:14Z</time>
      </trkpt>
      <trkpt lat="44.564" lon="2.64362">
        <ele>434.918</ele>
        <time>2016-09-14T11:08:34Z</time>
      </trkpt>
      <trkpt lat="44.56492" lon="2.64435">
        <ele>449.887</ele>
        <time>2016-09-14T11:08:54Z</time>
      </trkpt>
      <trkpt lat="44.56507" lon="2.64405">
        <ele>461.993</ele>
        <time>2016-09-14T11:09:14Z</time>
      </trkpt>
      <trkpt lat="44.5654" lon="2.64493">
        <ele>455.984</ele>
        <time>2016-09-14T11:09:34Z</time>
      </trkpt>
      <trkpt lat="44.56515" lon="2.64349">
        <ele>482.277</ele>
        <time>2016-09-14T11:09:54Z</time>
      </trkpt>
      <trkpt lat="44.56448" lon="2.64283">
        <ele>485.076</ele>
        <time>2016-09-14T11:10:14Z</time>
      </trkpt>
      <trkpt lat="44.56422" lon="2.6419">
        <ele>493.931</ele>
        <time>2016-09-14T11:10:34Z</time>
      </trkpt>
      <trkpt lat="44.56439" lon="2.64079">
        <ele>501.261</ele>
        <time>2016-09-14T11:10:54Z</time>
      </trkpt>
      <trkpt lat="44.56515" lon="2.63941">
        <ele>513.507</ele>
        <time>2016-09-14T11:11:14Z</time>
      </trkpt>
      <trkpt lat="44.56526" lon="2.63607">
        <ele>538.508</ele>
        <time>2016-09-14T11:11:34Z</time>
      </trkpt>
      <trkpt lat="44.56445" lon="2.63373">
        <ele>564.079</ele>
        <time>2016-09-14T11:11:54Z</time>
      </trkpt>
      <trkpt lat="44.5643" lon="2.63259">
        <ele>572.466</ele>
        <time>2016-09-14T11:12:14Z</time>
      </trkpt>
      <trkpt lat="44.56448" lon="2.63218">
        <ele>576.385</ele>
        <time>2016-09-14T11:12:34Z</time>
      </trkpt>
      <trkpt lat="44.56469" lon="2.63255">
        <ele>580.564</ele>
        <time>2016-09-14T11:12:54Z</time>
      </trkpt>
      <trkpt lat="44.56604" lon="2.63175">
        <ele>592.62</ele>
        <time>2016-09-14T11:13:14Z</time>
      </trkpt>
      <trkpt lat="44.56705" lon="2.63014">
        <ele>594.671</ele>
        <time>2016-09-14T11:13:34Z</time>
      </trkpt>
      <trkpt lat="44.56743" lon="2.62898">
        <ele>600.454</ele>
        <time>2016-09-14T11:13:54Z</time>
      </trkpt>
      <trkpt lat="44.5674" lon="2.62789">
        <ele>608.373</ele>
        <time>2016-09-14T11:14:14Z</time>
      </trkpt>
      <trkpt lat="44.5678" lon="2.62785">
        <ele>613.888</ele>
        <time>2016-09-14T11:14:34Z</time>
      </trkpt>
      <trkpt lat="44.56841" lon="2.62735">
        <ele>619.324</ele>
        <time>2016-09-14T11:14:54Z</time>
      </trkpt>
      <trkpt lat="44.5696" lon="2.62701">
        <ele>623.226</ele>
        <time>2016-09-14T11:15:14Z</time>
      </trkpt>
      <trkpt lat="44.57053" lon="2.62596">
        <ele>637.208</ele>
        <time>2016-09-14T11:15:34Z</time>
      </trkpt>
      <trkpt lat="44.57302" lon="2.62482">
        <ele>651.194</ele>
        <time>2016-09-14T11:15:54Z</time>
      </trkpt>
      <trkpt lat="44.57353" lon="2.6239">
        <ele>658.591</ele>
        <time>2016-09-14T11:16:14Z</time>
      </trkpt>
      <trkpt lat="44.57353" lon="2.6239">
        <ele>658.57</ele>
        <time>2016-09-14T11:16:34Z</time>
      </trkpt>
      <trkpt lat="44.57493" lon="2.62263">
        <ele>656.839</ele>
        <time>2016-09-14T11:16:54Z</time>
      </trkpt>
      <trkpt lat="44.57518" lon="2.6221">
        <ele>657.685</ele>
        <time>2016-09-14T11:17:14Z</time>
      </trkpt>
      <trkpt lat="44.57547" lon="2.62182">
        <ele>658.216</ele>
        <time>2016-09-14T11:17:34Z</time>
      </trkpt>
      <trkpt lat="44.57695" lon="2.62135">
        <ele>648.189</ele>
        <time>2016-09-14T11:17:54Z</time>
      </trkpt>
      <trkpt lat="44.57715" lon="2.62079">
        <ele>649.198</ele>
        <time>2016-09-14T11:18:14Z</time>
      </trkpt>
      <trkpt lat="44.57779" lon="2.62004">
        <ele>637.523</ele>
        <time>2016-09-14T11:18:34Z</time>
      </trkpt>
      <trkpt lat="44.57888" lon="2.62021">
        <ele>623.983</ele>
        <time>2016-09-14T11:18:54Z</time>
      </trkpt>
      <trkpt lat="44.57961" lon="2.62053">
        <ele>618.111</ele>
        <time>2016-09-14T11:19:14Z</time>
      </trkpt>
      <trkpt lat="44.57996" lon="2.62038">
        <ele>612.908</ele>
        <time>2016-09-14T11:19:34Z</time>
      </trkpt>
      <trkpt lat="44.58053" lon="2.6192">
        <ele>599.278</ele>
        <time>2016-09-14T11:19:54Z</time>
      </trkpt>
      <trkpt lat="44.58171" lon="2.61851">
        <ele>601.935</ele>
        <time>2016-09-14T11:20:14Z</time>
      </trkpt>
      <trkpt lat="44.58299" lon="2.61815">
        <ele>596.994</ele>
        <time>2016-09-14T11:20:34Z</time>
      </trkpt>
      <trkpt lat="44.58384" lon="2.6174">
        <ele>607.313</ele>
        <time>2016-09-14T11:20:54Z</time>
      </trkpt>
      <trkpt lat="44.58453" lon="2.61712">
        <ele>591.279</ele>
        <time>2016-09-14T11:21:14Z</time>
      </trkpt>
      <trkpt lat="44.58511" lon="2.61635">
        <ele>591.49</ele>
        <time>2016-09-14T11:21:34Z</time>
      </trkpt>
      <trkpt lat="44.5858" lon="2.61605">
        <ele>586.223</ele>
        <time>2016-09-14T11:21:54Z</time>
      </trkpt>
      <trkpt lat="44.58637" lon="2.61482">
        <ele>580.772</ele>
        <time>2016-09-14T11:22:14Z</time>
      </trkpt>
      <trkpt lat="44.5867" lon="2.6145">
        <ele>577.922</ele>
        <time>2016-09-14T11:22:34Z</time>
      </trkpt>
      <trkpt lat="44.58669" lon="2.6142">
        <ele>574.262</ele>
        <time>2016-09-14T11:22:54Z</time>
      </trkpt>
      <trkpt lat="44.58606" lon="2.61345">
        <ele>575.908</ele>
        <time>2016-09-14T11:23:14Z</time>
      </trkpt>
      <trkpt lat="44.58657" lon="2.61259">
        <ele>565.608</ele>
        <time>2016-09-14T11:23:34Z</time>
      </trkpt>
      <trkpt lat="44.58675" lon="2.61182">
        <ele>562.278</ele>
        <time>2016-09-14T11:23:54Z</time>
      </trkpt>
      <trkpt lat="44.58632" lon="2.61133">
        <ele>573.375</ele>
        <time>2016-09-14T11:24:14Z</time>
      </trkpt>
      <trkpt lat="44.5866" lon="2.61096">
        <ele>572.194</ele>
        <time>2016-09-14T11:24:34Z</time>
      </trkpt>
      <trkpt lat="44.58716" lon="2.61087">
        <ele>562.963</ele>
        <time>2016-09-14T11:24:54Z</time>
      </trkpt>
      <trkpt lat="44.58774" lon="2.61102">
        <ele>555.239</ele>
        <time>2016-09-14T11:25:14Z</time>
      </trkpt>
      <trkpt lat="44.58846" lon="2.6107">
        <ele>552.85</ele>
        <time>2016-09-14T11:25:34Z</time>
      </trkpt>
      <trkpt lat="44.58848" lon="2.60944">
        <ele>566.923</ele>
        <time>2016-09-14T11:25:54Z</time>
      </trkpt>
      <trkpt lat="44.58803" lon="2.60871">
        <ele>583.032</ele>
        <time>2016-09-14T11:26:14Z</time>
      </trkpt>
      <trkpt lat="44.588" lon="2.60772">
        <ele>592.888</ele>
        <time>2016-09-14T11:26:34Z</time>
      </trkpt>
      <trkpt lat="44.58848" lon="2.60652">
        <ele>588.324</ele>
        <time>2016-09-14T11:26:54Z</time>
      </trkpt>
      <trkpt lat="44.58848" lon="2.60476">
        <ele>591.626</ele>
        <time>2016-09-14T11:27:14Z</time>
      </trkpt>
      <trkpt lat="44.58895" lon="2.60379">
        <ele>587.308</ele>
        <time>2016-09-14T11:27:34Z</time>
      </trkpt>
      <trkpt lat="44.58895" lon="2.60298">
        <ele>588.874</ele>
        <time>2016-09-14T11:27:54Z</time>
      </trkpt>
      <trkpt lat="44.58924" lon="2.60206">
        <ele>586.521</ele>
        <time>2016-09-14T11:28:14Z</time>
      </trkpt>
      <trkpt lat="44.58976" lon="2.60193">
        <ele>584.23</ele>
        <time>2016-09-14T11:28:34Z</time>
      </trkpt>
      <trkpt lat="44.58877" lon="2.60081">
        <ele>609.949</ele>
        <time>2016-09-14T11:28:54Z</time>
      </trkpt>
      <trkpt lat="44.58938" lon="2.60073">
        <ele>608.885</ele>
        <time>2016-09-14T11:29:14Z</time>
      </trkpt>
      <trkpt lat="44.58935" lon="2.59985">
        <ele>618.426</ele>
        <time>2016-09-14T11:29:34Z</time>
      </trkpt>
      <trkpt lat="44.5901" lon="2.60083">
        <ele>603.489</ele>
        <time>2016-09-14T11:29:54Z</time>
      </trkpt>
      <trkpt lat="44.59095" lon="2.6003">
        <ele>610.458</ele>
        <time>2016-09-14T11:30:14Z</time>
      </trkpt>
      <trkpt lat="44.59144" lon="2.6">
        <ele>617.233</ele>
        <time>2016-09-14T11:30:34Z</time>
      </trkpt>
      <trkpt lat="44.59193" lon="2.59933">
        <ele>636.123</ele>
        <time>2016-09-14T11:30:54Z</time>
      </trkpt>
      <trkpt lat="44.5926" lon="2.59888">
        <ele>628.515</ele>
        <time>2016-09-14T11:31:14Z</time>
      </trkpt>
      <trkpt lat="44.59303" lon="2.59766">
        <ele>650.208</ele>
        <time>2016-09-14T11:31:34Z</time>
      </trkpt>
      <trkpt lat="44.59332" lon="2.5974">
        <ele>645.029</ele>
        <time>2016-09-14T11:31:54Z</time>
      </trkpt>
      <trkpt lat="44.59428" lon="2.59796">
        <ele>631.956</ele>
        <time>2016-09-14T11:32:14Z</time>
      </trkpt>
      <trkpt lat="44.59474" lon="2.5974">
        <ele>636.685</ele>
        <time>2016-09-14T11:32:34Z</time>
      </trkpt>
      <trkpt lat="44.5945" lon="2.59545">
        <ele>639.274</ele>
        <time>2016-09-14T11:32:54Z</time>
      </trkpt>
      <trkpt lat="44.59416" lon="2.59427">
        <ele>635.22</ele>
        <time>2016-09-14T11:33:14Z</time>
      </trkpt>
      <trkpt lat="44.59363" lon="2.59424">
        <ele>636.141</ele>
        <time>2016-09-14T11:33:34Z</time>
      </trkpt>
      <trkpt lat="44.59309" lon="2.59407">
        <ele>637.574</ele>
        <time>2016-09-14T11:33:54Z</time>
      </trkpt>
      <trkpt lat="44.59275" lon="2.59352">
        <ele>645.463</ele>
        <time>2016-09-14T11:34:14Z</time>
      </trkpt>
      <trkpt lat="44.59295" lon="2.59261">
        <ele>642.866</ele>
        <time>2016-09-14T11:34:34Z</time>
      </trkpt>
      <trkpt lat="44.59311" lon="2.59143">
        <ele>644.629</ele>
        <time>2016-09-14T11:34:54Z</time>
      </trkpt>
      <trkpt lat="44.59407" lon="2.59083">
        <ele>641.421</ele>
        <time>2016-09-14T11:35:14Z</time>
      </trkpt>
      <trkpt lat="44.59393" lon="2.59021">
        <ele>653.008</ele>
        <time>2016-09-14T11:35:34Z</time>
      </trkpt>
      <trkpt lat="44.59428" lon="2.58899">
        <ele>662.492</ele>
        <time>2016-09-14T11:35:54Z</time>
      </trkpt>
      <trkpt lat="44.59422" lon="2.58882">
        <ele>664.459</ele>
        <time>2016-09-14T11:36:14Z</time>
      </trkpt>
      <trkpt lat="44.59447" lon="2.58837">
        <ele>655.738</ele>
        <time>2016-09-14T11:36:34Z</time>
      </trkpt>
      <trkpt lat="44.59469" lon="2.58849">
        <ele>649.587</ele>
        <time>2016-09-14T11:36:54Z</time>
      </trkpt>
      <trkpt lat="44.59473" lon="2.58824">
        <ele>643.933</ele>
        <time>2016-09-14T11:37:14Z</time>
      </trkpt>
      <trkpt lat="44.59502" lon="2.58804">
        <ele>633.644</ele>
        <time>2016-09-14T11:37:34Z</time>
      </trkpt>
      <trkpt lat="44.59469" lon="2.58759">
        <ele>638.297</ele>
        <time>2016-09-14T11:37:54Z</time>
      </trkpt>
      <trkpt lat="44.59477" lon="2.58626">
        <ele>650.136</ele>
        <time>2016-09-14T11:38:14Z</time>
      </trkpt>
      <trkpt lat="44.59526" lon="2.58613">
        <ele>640.099</ele>
        <time>2016-09-14T11:38:34Z</time>
      </trkpt>
      <trkpt lat="44.59561" lon="2.58549">
        <ele>638.907</ele>
        <time>2016-09-14T11:38:54Z</time>
      </trkpt>
      <trkpt lat="44.5963" lon="2.5853">
        <ele>631.527</ele>
        <time>2016-09-14T11:39:14Z</time>
      </trkpt>
      <trkpt lat="44.5967" lon="2.58446">
        <ele>628.908</ele>
        <time>2016-09-14T11:39:34Z</time>
      </trkpt>
      <trkpt lat="44.59708" lon="2.58429">
        <ele>630.845</ele>
        <time>2016-09-14T11:39:54Z</time>
      </trkpt>
      <trkpt lat="44.59829" lon="2.58403">
        <ele>635.652</ele>
        <time>2016-09-14T11:40:14Z</time>
      </trkpt>
      <trkpt lat="44.59884" lon="2.58317">
        <ele>635.471</ele>
        <time>2016-09-14T11:40:34Z</time>
      </trkpt>
      <trkpt lat="44.59963" lon="2.58412">
        <ele>634.15</ele>
        <time>2016-09-14T11:40:54Z</time>
      </trkpt>
      <trkpt lat="44.6001" lon="2.58341">
        <ele>644.586</ele>
        <time>2016-09-14T11:41:14Z</time>
      </trkpt>
      <trkpt lat="44.60125" lon="2.58313">
        <ele>638.727</ele>
        <time>2016-09-14T11:41:34Z</time>
      </trkpt>
      <trkpt lat="44.60171" lon="2.58326">
        <ele>643.06</ele>
        <time>2016-09-14T11:41:54Z</time>
      </trkpt>
      <trkpt lat="44.6025" lon="2.58455">
        <ele>648.299</ele>
        <time>2016-09-14T11:42:14Z</time>
      </trkpt>
      <trkpt lat="44.60385" lon="2.58429">
        <ele>647.537</ele>
        <time>2016-09-14T11:42:34Z</time>
      </trkpt>
      <trkpt lat="44.60422" lon="2.58353">
        <ele>651.8</ele>
      </trkpt>
      <trkpt lat="44.60423" lon="2.58351">
        <ele>652</ele>
      </trkpt>
    </trkseg>
  </trk>
</gpx>